sensor_id;sensor_type;location;lat;lon;timestamp;P1;durP1;ratioP1;P2;durP2;ratioP2
7051;SDS011;3567;52.444;13.556;2022-08-14T00:00:35;19.02;;;17.15;;
7051;SDS011;3567;52.444;13.556;2022-08-14T00:03:01;20.23;;;18.42;;
7051;SDS011;3567;52.444;13.556;2022-08-14T00:05:26;17.98;;;16.42;;
7051;SDS011;3567;52.444;13.556;2022-08-14T00:07:52;19.08;;;17.27;;
7051;SDS011;3567;52.444;13.556;2022-08-14T00:10:18;18.45;;;16.88;;
7051;SDS011;3567;52.444;13.556;2022-08-14T00:12:47;19.67;;;17.67;;
7051;SDS011;3567;52.444;13.556;2022-08-14T00:17:51;20.08;;;18.48;;
7051;SDS011;3567;52.444;13.556;2022-08-14T00:20:18;17.55;;;16.08;;
7051;SDS011;3567;52.444;13.556;2022-08-14T00:22:45;18.75;;;17.10;;
7051;SDS011;3567;52.444;13.556;2022-08-14T00:25:11;18.15;;;16.15;;
7051;SDS011;3567;52.444;13.556;2022-08-14T00:27:37;16.70;;;15.30;;
7051;SDS011;3567;52.444;13.556;2022-08-14T00:30:04;16.33;;;15.02;;
7051;SDS011;3567;52.444;13.556;2022-08-14T00:32:31;16.73;;;15.07;;
7051;SDS011;3567;52.444;13.556;2022-08-14T00:34:57;15.95;;;14.55;;
7051;SDS011;3567;52.444;13.556;2022-08-14T00:37:25;15.18;;;13.82;;
7051;SDS011;3567;52.444;13.556;2022-08-14T00:39:51;15.98;;;14.68;;
7051;SDS011;3567;52.444;13.556;2022-08-14T00:42:20;19.90;;;15.38;;
7051;SDS011;3567;52.444;13.556;2022-08-14T00:44:47;17.48;;;15.65;;
7051;SDS011;3567;52.444;13.556;2022-08-14T00:47:13;17.48;;;15.82;;
7051;SDS011;3567;52.444;13.556;2022-08-14T00:49:40;16.60;;;15.05;;
7051;SDS011;3567;52.444;13.556;2022-08-14T00:52:07;16.50;;;14.93;;
7051;SDS011;3567;52.444;13.556;2022-08-14T00:54:33;16.88;;;14.25;;
7051;SDS011;3567;52.444;13.556;2022-08-14T00:56:59;14.77;;;13.57;;
7051;SDS011;3567;52.444;13.556;2022-08-14T00:59:26;14.88;;;13.68;;
7051;SDS011;3567;52.444;13.556;2022-08-14T01:01:56;14.02;;;12.93;;
7051;SDS011;3567;52.444;13.556;2022-08-14T01:04:24;15.65;;;14.45;;
7051;SDS011;3567;52.444;13.556;2022-08-14T01:06:51;16.83;;;15.30;;
7051;SDS011;3567;52.444;13.556;2022-08-14T01:09:17;15.30;;;13.80;;
7051;SDS011;3567;52.444;13.556;2022-08-14T01:11:47;13.95;;;12.65;;
7051;SDS011;3567;52.444;13.556;2022-08-14T01:14:14;12.70;;;11.70;;
7051;SDS011;3567;52.444;13.556;2022-08-14T01:16:40;13.68;;;12.68;;
7051;SDS011;3567;52.444;13.556;2022-08-14T01:19:06;16.50;;;14.77;;
7051;SDS011;3567;52.444;13.556;2022-08-14T01:21:50;15.52;;;13.85;;
7051;SDS011;3567;52.444;13.556;2022-08-14T01:24:16;16.73;;;15.10;;
7051;SDS011;3567;52.444;13.556;2022-08-14T01:26:41;15.98;;;14.50;;
7051;SDS011;3567;52.444;13.556;2022-08-14T01:29:08;16.73;;;15.43;;
7051;SDS011;3567;52.444;13.556;2022-08-14T01:31:34;15.60;;;14.40;;
7051;SDS011;3567;52.444;13.556;2022-08-14T01:34:05;15.85;;;14.55;;
7051;SDS011;3567;52.444;13.556;2022-08-14T01:36:31;12.95;;;11.95;;
7051;SDS011;3567;52.444;13.556;2022-08-14T01:39:01;15.43;;;13.95;;
7051;SDS011;3567;52.444;13.556;2022-08-14T01:41:46;13.13;;;12.00;;
7051;SDS011;3567;52.444;13.556;2022-08-14T01:44:20;16.23;;;14.77;;
7051;SDS011;3567;52.444;13.556;2022-08-14T01:46:48;15.32;;;13.93;;
7051;SDS011;3567;52.444;13.556;2022-08-14T01:49:18;18.30;;;16.08;;
7051;SDS011;3567;52.444;13.556;2022-08-14T01:51:44;14.70;;;13.48;;
7051;SDS011;3567;52.444;13.556;2022-08-14T01:54:15;15.30;;;14.00;;
7051;SDS011;3567;52.444;13.556;2022-08-14T01:56:47;16.02;;;14.65;;
7051;SDS011;3567;52.444;13.556;2022-08-14T02:01:41;14.90;;;13.60;;
7051;SDS011;3567;52.444;13.556;2022-08-14T02:04:07;16.42;;;14.68;;
7051;SDS011;3567;52.444;13.556;2022-08-14T02:06:34;16.73;;;15.23;;
7051;SDS011;3567;52.444;13.556;2022-08-14T02:09:05;14.18;;;13.18;;
7051;SDS011;3567;52.444;13.556;2022-08-14T02:11:32;15.32;;;14.13;;
7051;SDS011;3567;52.444;13.556;2022-08-14T02:16:31;15.48;;;14.18;;
7051;SDS011;3567;52.444;13.556;2022-08-14T02:19:01;16.17;;;14.82;;
7051;SDS011;3567;52.444;13.556;2022-08-14T02:21:38;15.98;;;14.68;;
7051;SDS011;3567;52.444;13.556;2022-08-14T02:24:04;16.30;;;15.10;;
7051;SDS011;3567;52.444;13.556;2022-08-14T02:26:32;16.30;;;15.07;;
7051;SDS011;3567;52.444;13.556;2022-08-14T02:29:10;15.02;;;13.65;;
7051;SDS011;3567;52.444;13.556;2022-08-14T02:31:38;15.90;;;14.40;;
7051;SDS011;3567;52.444;13.556;2022-08-14T02:34:10;14.82;;;13.43;;
7051;SDS011;3567;52.444;13.556;2022-08-14T02:36:38;14.73;;;13.60;;
7051;SDS011;3567;52.444;13.556;2022-08-14T02:39:06;15.50;;;14.30;;
7051;SDS011;3567;52.444;13.556;2022-08-14T02:41:33;15.25;;;13.98;;
7051;SDS011;3567;52.444;13.556;2022-08-14T02:44:00;15.50;;;14.13;;
7051;SDS011;3567;52.444;13.556;2022-08-14T02:46:26;16.35;;;15.05;;
7051;SDS011;3567;52.444;13.556;2022-08-14T02:48:52;17.70;;;16.10;;
7051;SDS011;3567;52.444;13.556;2022-08-14T02:51:18;13.68;;;12.68;;
7051;SDS011;3567;52.444;13.556;2022-08-14T02:53:44;15.38;;;14.18;;
7051;SDS011;3567;52.444;13.556;2022-08-14T02:56:12;15.38;;;14.07;;
7051;SDS011;3567;52.444;13.556;2022-08-14T02:58:41;15.02;;;13.93;;
7051;SDS011;3567;52.444;13.556;2022-08-14T03:01:11;15.95;;;14.75;;
7051;SDS011;3567;52.444;13.556;2022-08-14T03:03:37;15.43;;;14.23;;
7051;SDS011;3567;52.444;13.556;2022-08-14T03:06:03;14.52;;;13.32;;
7051;SDS011;3567;52.444;13.556;2022-08-14T03:08:30;17.42;;;16.08;;
7051;SDS011;3567;52.444;13.556;2022-08-14T03:11:00;16.40;;;14.90;;
7051;SDS011;3567;52.444;13.556;2022-08-14T03:13:30;16.08;;;14.75;;
7051;SDS011;3567;52.444;13.556;2022-08-14T03:16:00;15.68;;;14.43;;
7051;SDS011;3567;52.444;13.556;2022-08-14T03:18:27;13.75;;;12.75;;
7051;SDS011;3567;52.444;13.556;2022-08-14T03:20:53;16.45;;;14.75;;
7051;SDS011;3567;52.444;13.556;2022-08-14T03:23:19;15.50;;;14.30;;
7051;SDS011;3567;52.444;13.556;2022-08-14T03:25:44;15.20;;;13.80;;
7051;SDS011;3567;52.444;13.556;2022-08-14T03:28:11;14.20;;;13.00;;
7051;SDS011;3567;52.444;13.556;2022-08-14T03:30:37;14.13;;;12.98;;
7051;SDS011;3567;52.444;13.556;2022-08-14T03:33:03;16.13;;;14.68;;
7051;SDS011;3567;52.444;13.556;2022-08-14T03:35:29;16.48;;;15.10;;
7051;SDS011;3567;52.444;13.556;2022-08-14T03:38:03;16.05;;;14.75;;
7051;SDS011;3567;52.444;13.556;2022-08-14T03:40:37;17.90;;;16.40;;
7051;SDS011;3567;52.444;13.556;2022-08-14T03:43:07;15.75;;;14.38;;
7051;SDS011;3567;52.444;13.556;2022-08-14T03:45:34;15.80;;;14.63;;
7051;SDS011;3567;52.444;13.556;2022-08-14T03:48:09;16.40;;;15.13;;
7051;SDS011;3567;52.444;13.556;2022-08-14T03:50:40;16.33;;;14.95;;
7051;SDS011;3567;52.444;13.556;2022-08-14T03:53:08;15.05;;;13.85;;
7051;SDS011;3567;52.444;13.556;2022-08-14T03:55:34;15.70;;;14.48;;
7051;SDS011;3567;52.444;13.556;2022-08-14T03:58:02;18.02;;;16.42;;
7051;SDS011;3567;52.444;13.556;2022-08-14T04:00:28;15.90;;;14.50;;
7051;SDS011;3567;52.444;13.556;2022-08-14T04:02:54;15.27;;;14.07;;
7051;SDS011;3567;52.444;13.556;2022-08-14T04:05:19;15.23;;;14.13;;
7051;SDS011;3567;52.444;13.556;2022-08-14T04:07:45;15.18;;;13.48;;
7051;SDS011;3567;52.444;13.556;2022-08-14T04:10:11;13.48;;;12.50;;
7051;SDS011;3567;52.444;13.556;2022-08-14T04:12:37;16.40;;;15.20;;
7051;SDS011;3567;52.444;13.556;2022-08-14T04:15:03;15.43;;;14.32;;
7051;SDS011;3567;52.444;13.556;2022-08-14T04:17:30;15.20;;;14.07;;
7051;SDS011;3567;52.444;13.556;2022-08-14T04:19:57;14.35;;;13.23;;
7051;SDS011;3567;52.444;13.556;2022-08-14T04:22:27;16.23;;;14.98;;
7051;SDS011;3567;52.444;13.556;2022-08-14T04:24:53;19.55;;;15.70;;
7051;SDS011;3567;52.444;13.556;2022-08-14T04:27:19;17.02;;;15.43;;
7051;SDS011;3567;52.444;13.556;2022-08-14T04:29:45;16.00;;;14.63;;
7051;SDS011;3567;52.444;13.556;2022-08-14T04:32:11;17.90;;;16.30;;
7051;SDS011;3567;52.444;13.556;2022-08-14T04:34:37;17.02;;;15.43;;
7051;SDS011;3567;52.444;13.556;2022-08-14T04:37:06;17.70;;;16.30;;
7051;SDS011;3567;52.444;13.556;2022-08-14T04:39:52;16.05;;;14.85;;
7051;SDS011;3567;52.444;13.556;2022-08-14T04:42:38;17.38;;;16.08;;
7051;SDS011;3567;52.444;13.556;2022-08-14T04:45:23;18.58;;;16.83;;
7051;SDS011;3567;52.444;13.556;2022-08-14T04:47:50;16.00;;;14.70;;
7051;SDS011;3567;52.444;13.556;2022-08-14T04:50:35;17.73;;;16.25;;
7051;SDS011;3567;52.444;13.556;2022-08-14T04:53:02;16.98;;;15.68;;
7051;SDS011;3567;52.444;13.556;2022-08-14T04:55:27;19.00;;;17.60;;
7051;SDS011;3567;52.444;13.556;2022-08-14T04:57:54;16.88;;;15.27;;
7051;SDS011;3567;52.444;13.556;2022-08-14T05:00:19;16.63;;;15.27;;
7051;SDS011;3567;52.444;13.556;2022-08-14T05:02:46;15.95;;;14.70;;
7051;SDS011;3567;52.444;13.556;2022-08-14T05:05:12;17.30;;;15.90;;
7051;SDS011;3567;52.444;13.556;2022-08-14T05:07:38;17.15;;;15.82;;
7051;SDS011;3567;52.444;13.556;2022-08-14T05:10:04;14.98;;;13.88;;
7051;SDS011;3567;52.444;13.556;2022-08-14T05:12:30;15.45;;;14.32;;
7051;SDS011;3567;52.444;13.556;2022-08-14T05:14:55;15.52;;;14.40;;
7051;SDS011;3567;52.444;13.556;2022-08-14T05:17:21;14.75;;;13.65;;
7051;SDS011;3567;52.444;13.556;2022-08-14T05:19:49;16.63;;;15.23;;
7051;SDS011;3567;52.444;13.556;2022-08-14T05:22:15;14.93;;;13.82;;
7051;SDS011;3567;52.444;13.556;2022-08-14T05:24:40;16.63;;;15.15;;
7051;SDS011;3567;52.444;13.556;2022-08-14T05:27:06;16.05;;;14.65;;
7051;SDS011;3567;52.444;13.556;2022-08-14T05:29:33;15.20;;;14.00;;
7051;SDS011;3567;52.444;13.556;2022-08-14T05:31:59;14.75;;;13.65;;
7051;SDS011;3567;52.444;13.556;2022-08-14T05:34:30;19.63;;;17.98;;
7051;SDS011;3567;52.444;13.556;2022-08-14T05:36:55;16.30;;;14.90;;
7051;SDS011;3567;52.444;13.556;2022-08-14T05:39:21;17.30;;;15.80;;
7051;SDS011;3567;52.444;13.556;2022-08-14T05:41:47;15.43;;;14.02;;
7051;SDS011;3567;52.444;13.556;2022-08-14T05:44:12;15.73;;;14.48;;
7051;SDS011;3567;52.444;13.556;2022-08-14T05:46:38;18.88;;;17.38;;
7051;SDS011;3567;52.444;13.556;2022-08-14T05:49:03;16.83;;;15.52;;
7051;SDS011;3567;52.444;13.556;2022-08-14T05:51:29;17.80;;;15.55;;
7051;SDS011;3567;52.444;13.556;2022-08-14T05:53:55;13.82;;;12.48;;
7051;SDS011;3567;52.444;13.556;2022-08-14T05:56:22;13.02;;;11.88;;
7051;SDS011;3567;52.444;13.556;2022-08-14T05:58:48;13.95;;;11.50;;
7051;SDS011;3567;52.444;13.556;2022-08-14T06:01:14;13.77;;;12.57;;
7051;SDS011;3567;52.444;13.556;2022-08-14T06:03:39;14.02;;;12.68;;
7051;SDS011;3567;52.444;13.556;2022-08-14T06:06:04;12.35;;;11.27;;
7051;SDS011;3567;52.444;13.556;2022-08-14T06:08:31;13.35;;;12.23;;
7051;SDS011;3567;52.444;13.556;2022-08-14T06:10:58;14.02;;;12.73;;
7051;SDS011;3567;52.444;13.556;2022-08-14T06:13:28;12.82;;;11.80;;
7051;SDS011;3567;52.444;13.556;2022-08-14T06:15:57;11.95;;;10.95;;
7051;SDS011;3567;52.444;13.556;2022-08-14T06:18:23;11.25;;;10.35;;
7051;SDS011;3567;52.444;13.556;2022-08-14T06:20:49;12.25;;;11.20;;
7051;SDS011;3567;52.444;13.556;2022-08-14T06:23:15;12.60;;;11.50;;
7051;SDS011;3567;52.444;13.556;2022-08-14T06:25:40;13.18;;;12.07;;
7051;SDS011;3567;52.444;13.556;2022-08-14T06:28:06;12.50;;;11.32;;
7051;SDS011;3567;52.444;13.556;2022-08-14T06:30:32;12.65;;;11.60;;
7051;SDS011;3567;52.444;13.556;2022-08-14T06:32:58;12.63;;;11.52;;
7051;SDS011;3567;52.444;13.556;2022-08-14T06:35:25;12.43;;;11.27;;
7051;SDS011;3567;52.444;13.556;2022-08-14T06:37:54;12.45;;;11.45;;
7051;SDS011;3567;52.444;13.556;2022-08-14T06:40:22;12.07;;;11.15;;
7051;SDS011;3567;52.444;13.556;2022-08-14T06:42:49;11.50;;;10.63;;
7051;SDS011;3567;52.444;13.556;2022-08-14T06:45:15;11.05;;;10.25;;
7051;SDS011;3567;52.444;13.556;2022-08-14T06:47:41;11.77;;;10.77;;
7051;SDS011;3567;52.444;13.556;2022-08-14T06:50:10;11.00;;;10.20;;
7051;SDS011;3567;52.444;13.556;2022-08-14T06:52:39;12.23;;;10.95;;
7051;SDS011;3567;52.444;13.556;2022-08-14T06:55:05;11.80;;;10.85;;
7051;SDS011;3567;52.444;13.556;2022-08-14T06:57:36;12.18;;;11.20;;
7051;SDS011;3567;52.444;13.556;2022-08-14T07:00:14;10.77;;;9.98;;
7051;SDS011;3567;52.444;13.556;2022-08-14T07:02:45;11.35;;;10.38;;
7051;SDS011;3567;52.444;13.556;2022-08-14T07:05:30;13.23;;;10.80;;
7051;SDS011;3567;52.444;13.556;2022-08-14T07:10:38;11.10;;;10.30;;
7051;SDS011;3567;52.444;13.556;2022-08-14T07:13:04;11.77;;;10.65;;
7051;SDS011;3567;52.444;13.556;2022-08-14T07:15:30;11.52;;;10.63;;
7051;SDS011;3567;52.444;13.556;2022-08-14T07:17:57;10.35;;;9.48;;
7051;SDS011;3567;52.444;13.556;2022-08-14T07:20:22;10.68;;;9.65;;
7051;SDS011;3567;52.444;13.556;2022-08-14T07:22:48;11.30;;;10.40;;
7051;SDS011;3567;52.444;13.556;2022-08-14T07:25:14;9.70;;;8.80;;
7051;SDS011;3567;52.444;13.556;2022-08-14T07:27:40;10.38;;;8.60;;
7051;SDS011;3567;52.444;13.556;2022-08-14T07:30:07;10.02;;;9.32;;
7051;SDS011;3567;52.444;13.556;2022-08-14T07:32:33;11.18;;;8.68;;
7051;SDS011;3567;52.444;13.556;2022-08-14T07:34:59;10.15;;;8.85;;
7051;SDS011;3567;52.444;13.556;2022-08-14T07:37:24;9.02;;;8.43;;
7051;SDS011;3567;52.444;13.556;2022-08-14T07:39:50;10.57;;;9.02;;
7051;SDS011;3567;52.444;13.556;2022-08-14T07:42:15;8.95;;;8.35;;
7051;SDS011;3567;52.444;13.556;2022-08-14T07:44:41;9.82;;;8.95;;
7051;SDS011;3567;52.444;13.556;2022-08-14T07:47:06;8.50;;;7.70;;
7051;SDS011;3567;52.444;13.556;2022-08-14T07:49:32;8.52;;;7.90;;
7051;SDS011;3567;52.444;13.556;2022-08-14T07:51:58;10.27;;;8.27;;
7051;SDS011;3567;52.444;13.556;2022-08-14T07:54:25;8.38;;;7.78;;
7051;SDS011;3567;52.444;13.556;2022-08-14T07:56:51;7.88;;;7.18;;
7051;SDS011;3567;52.444;13.556;2022-08-14T07:59:16;10.85;;;6.97;;
7051;SDS011;3567;52.444;13.556;2022-08-14T08:01:42;7.45;;;6.85;;
7051;SDS011;3567;52.444;13.556;2022-08-14T08:04:08;7.32;;;6.82;;
7051;SDS011;3567;52.444;13.556;2022-08-14T08:06:35;7.68;;;7.05;;
7051;SDS011;3567;52.444;13.556;2022-08-14T08:09:02;8.07;;;7.15;;
7051;SDS011;3567;52.444;13.556;2022-08-14T08:11:35;7.50;;;6.93;;
7051;SDS011;3567;52.444;13.556;2022-08-14T08:14:02;7.75;;;6.35;;
7051;SDS011;3567;52.444;13.556;2022-08-14T08:16:35;6.88;;;6.25;;
7051;SDS011;3567;52.444;13.556;2022-08-14T08:19:02;7.38;;;6.80;;
7051;SDS011;3567;52.444;13.556;2022-08-14T08:21:28;6.70;;;6.20;;
7051;SDS011;3567;52.444;13.556;2022-08-14T08:23:53;6.10;;;5.70;;
7051;SDS011;3567;52.444;13.556;2022-08-14T08:26:19;6.93;;;6.30;;
7051;SDS011;3567;52.444;13.556;2022-08-14T08:28:53;6.90;;;6.28;;
7051;SDS011;3567;52.444;13.556;2022-08-14T08:31:19;7.07;;;6.38;;
7051;SDS011;3567;52.444;13.556;2022-08-14T08:33:49;8.27;;;7.05;;
7051;SDS011;3567;52.444;13.556;2022-08-14T08:36:15;7.03;;;6.00;;
7051;SDS011;3567;52.444;13.556;2022-08-14T08:38:41;6.40;;;6.00;;
7051;SDS011;3567;52.444;13.556;2022-08-14T08:41:06;7.40;;;6.60;;
7051;SDS011;3567;52.444;13.556;2022-08-14T08:43:34;6.43;;;5.88;;
7051;SDS011;3567;52.444;13.556;2022-08-14T08:48:30;7.57;;;6.90;;
7051;SDS011;3567;52.444;13.556;2022-08-14T08:51:08;6.28;;;5.95;;
7051;SDS011;3567;52.444;13.556;2022-08-14T08:53:43;8.85;;;6.10;;
7051;SDS011;3567;52.444;13.556;2022-08-14T08:56:08;6.20;;;5.80;;
7051;SDS011;3567;52.444;13.556;2022-08-14T08:58:36;7.13;;;5.50;;
7051;SDS011;3567;52.444;13.556;2022-08-14T09:01:01;6.38;;;5.78;;
7051;SDS011;3567;52.444;13.556;2022-08-14T09:03:27;8.77;;;5.90;;
7051;SDS011;3567;52.444;13.556;2022-08-14T09:05:55;6.32;;;5.50;;
7051;SDS011;3567;52.444;13.556;2022-08-14T09:08:27;6.28;;;5.68;;
7051;SDS011;3567;52.444;13.556;2022-08-14T09:10:55;8.13;;;4.93;;
7051;SDS011;3567;52.444;13.556;2022-08-14T09:13:22;6.25;;;5.05;;
7051;SDS011;3567;52.444;13.556;2022-08-14T09:15:51;7.10;;;4.68;;
7051;SDS011;3567;52.444;13.556;2022-08-14T09:18:18;6.13;;;4.57;;
7051;SDS011;3567;52.444;13.556;2022-08-14T09:20:47;5.65;;;5.18;;
7051;SDS011;3567;52.444;13.556;2022-08-14T09:23:17;9.02;;;4.95;;
7051;SDS011;3567;52.444;13.556;2022-08-14T09:25:44;6.32;;;3.97;;
7051;SDS011;3567;52.444;13.556;2022-08-14T09:28:12;4.65;;;4.25;;
7051;SDS011;3567;52.444;13.556;2022-08-14T09:30:40;4.30;;;4.00;;
7051;SDS011;3567;52.444;13.556;2022-08-14T09:36:13;4.00;;;3.05;;
7051;SDS011;3567;52.444;13.556;2022-08-14T09:39:22;4.72;;;2.53;;
7051;SDS011;3567;52.444;13.556;2022-08-14T09:47:38;2.45;;;2.25;;
7051;SDS011;3567;52.444;13.556;2022-08-14T09:50:17;5.25;;;2.50;;
7051;SDS011;3567;52.444;13.556;2022-08-14T09:52:58;2.85;;;2.60;;
7051;SDS011;3567;52.444;13.556;2022-08-14T09:55:28;3.08;;;2.72;;
7051;SDS011;3567;52.444;13.556;2022-08-14T09:58:06;3.40;;;3.20;;
7051;SDS011;3567;52.444;13.556;2022-08-14T10:00:43;5.32;;;2.97;;
7051;SDS011;3567;52.444;13.556;2022-08-14T10:03:10;4.18;;;2.65;;
7051;SDS011;3567;52.444;13.556;2022-08-14T10:05:36;3.22;;;2.90;;
7051;SDS011;3567;52.444;13.556;2022-08-14T10:08:03;2.65;;;2.55;;
7051;SDS011;3567;52.444;13.556;2022-08-14T10:10:40;3.30;;;2.55;;
7051;SDS011;3567;52.444;13.556;2022-08-14T10:13:06;6.10;;;3.38;;
7051;SDS011;3567;52.444;13.556;2022-08-14T10:15:44;10.38;;;2.90;;
7051;SDS011;3567;52.444;13.556;2022-08-14T10:18:14;2.97;;;2.78;;
7051;SDS011;3567;52.444;13.556;2022-08-14T10:23:26;5.93;;;3.13;;
7051;SDS011;3567;52.444;13.556;2022-08-14T10:25:57;4.38;;;2.90;;
7051;SDS011;3567;52.444;13.556;2022-08-14T10:28:36;2.10;;;1.90;;
7051;SDS011;3567;52.444;13.556;2022-08-14T10:31:14;3.88;;;2.53;;
7051;SDS011;3567;52.444;13.556;2022-08-14T10:33:45;4.57;;;2.78;;
7051;SDS011;3567;52.444;13.556;2022-08-14T10:36:32;2.55;;;2.38;;
7051;SDS011;3567;52.444;13.556;2022-08-14T10:39:02;7.32;;;2.83;;
7051;SDS011;3567;52.444;13.556;2022-08-14T10:41:34;3.33;;;2.60;;
7051;SDS011;3567;52.444;13.556;2022-08-14T10:49:20;2.90;;;2.70;;
7051;SDS011;3567;52.444;13.556;2022-08-14T10:52:03;4.03;;;3.22;;
7051;SDS011;3567;52.444;13.556;2022-08-14T10:59:57;3.97;;;2.75;;
7051;SDS011;3567;52.444;13.556;2022-08-14T11:02:40;3.55;;;2.42;;
7051;SDS011;3567;52.444;13.556;2022-08-14T11:05:07;4.78;;;2.33;;
7051;SDS011;3567;52.444;13.556;2022-08-14T11:10:22;3.08;;;2.00;;
7051;SDS011;3567;52.444;13.556;2022-08-14T11:12:50;2.78;;;2.30;;
7051;SDS011;3567;52.444;13.556;2022-08-14T11:15:22;4.82;;;2.67;;
7051;SDS011;3567;52.444;13.556;2022-08-14T11:17:49;3.10;;;2.83;;
7051;SDS011;3567;52.444;13.556;2022-08-14T11:20:17;6.65;;;2.58;;
7051;SDS011;3567;52.444;13.556;2022-08-14T11:22:51;4.00;;;2.63;;
7051;SDS011;3567;52.444;13.556;2022-08-14T11:25:22;5.07;;;2.65;;
7051;SDS011;3567;52.444;13.556;2022-08-14T11:27:53;2.88;;;2.65;;
7051;SDS011;3567;52.444;13.556;2022-08-14T11:30:22;3.72;;;2.63;;
7051;SDS011;3567;52.444;13.556;2022-08-14T11:32:49;3.47;;;3.17;;
7051;SDS011;3567;52.444;13.556;2022-08-14T11:35:20;4.28;;;3.47;;
7051;SDS011;3567;52.444;13.556;2022-08-14T11:38:01;4.25;;;3.38;;
7051;SDS011;3567;52.444;13.556;2022-08-14T11:40:28;3.45;;;3.15;;
7051;SDS011;3567;52.444;13.556;2022-08-14T11:42:58;3.10;;;3.00;;
7051;SDS011;3567;52.444;13.556;2022-08-14T11:45:26;3.30;;;3.10;;
7051;SDS011;3567;52.444;13.556;2022-08-14T11:47:57;4.78;;;2.60;;
7051;SDS011;3567;52.444;13.556;2022-08-14T11:50:24;4.55;;;2.90;;
7051;SDS011;3567;52.444;13.556;2022-08-14T11:52:55;2.90;;;2.70;;
7051;SDS011;3567;52.444;13.556;2022-08-14T11:55:21;3.40;;;3.13;;
7051;SDS011;3567;52.444;13.556;2022-08-14T11:57:57;3.10;;;2.83;;
7051;SDS011;3567;52.444;13.556;2022-08-14T12:00:25;4.47;;;2.90;;
7051;SDS011;3567;52.444;13.556;2022-08-14T12:02:52;3.05;;;2.85;;
7051;SDS011;3567;52.444;13.556;2022-08-14T12:05:38;2.90;;;2.70;;
7051;SDS011;3567;52.444;13.556;2022-08-14T12:08:06;3.38;;;2.92;;
7051;SDS011;3567;52.444;13.556;2022-08-14T12:10:36;3.83;;;2.55;;
7051;SDS011;3567;52.444;13.556;2022-08-14T12:13:16;3.00;;;2.80;;
7051;SDS011;3567;52.444;13.556;2022-08-14T12:15:45;2.83;;;2.72;;
7051;SDS011;3567;52.444;13.556;2022-08-14T12:18:30;4.28;;;2.85;;
7051;SDS011;3567;52.444;13.556;2022-08-14T12:23:43;4.47;;;2.60;;
7051;SDS011;3567;52.444;13.556;2022-08-14T12:26:13;2.72;;;2.63;;
7051;SDS011;3567;52.444;13.556;2022-08-14T12:28:44;2.42;;;2.22;;
7051;SDS011;3567;52.444;13.556;2022-08-14T12:31:17;2.80;;;2.30;;
7051;SDS011;3567;52.444;13.556;2022-08-14T12:33:59;3.05;;;2.80;;
7051;SDS011;3567;52.444;13.556;2022-08-14T12:36:26;4.13;;;3.05;;
7051;SDS011;3567;52.444;13.556;2022-08-14T12:38:56;2.85;;;2.65;;
7051;SDS011;3567;52.444;13.556;2022-08-14T12:41:22;5.15;;;2.47;;
7051;SDS011;3567;52.444;13.556;2022-08-14T12:43:57;2.90;;;2.70;;
7051;SDS011;3567;52.444;13.556;2022-08-14T12:46:27;4.32;;;2.17;;
7051;SDS011;3567;52.444;13.556;2022-08-14T12:48:53;2.65;;;2.40;;
7051;SDS011;3567;52.444;13.556;2022-08-14T12:51:20;5.00;;;2.25;;
7051;SDS011;3567;52.444;13.556;2022-08-14T12:53:50;2.05;;;1.95;;
7051;SDS011;3567;52.444;13.556;2022-08-14T12:56:18;2.33;;;2.17;;
7051;SDS011;3567;52.444;13.556;2022-08-14T12:58:49;3.15;;;2.33;;
7051;SDS011;3567;52.444;13.556;2022-08-14T13:01:26;4.93;;;1.95;;
7051;SDS011;3567;52.444;13.556;2022-08-14T13:04:06;1.88;;;1.77;;
7051;SDS011;3567;52.444;13.556;2022-08-14T13:06:37;1.67;;;1.52;;
7051;SDS011;3567;52.444;13.556;2022-08-14T13:09:05;1.90;;;1.80;;
7051;SDS011;3567;52.444;13.556;2022-08-14T13:11:53;1.90;;;1.80;;
7051;SDS011;3567;52.444;13.556;2022-08-14T13:14:23;3.22;;;1.70;;
7051;SDS011;3567;52.444;13.556;2022-08-14T13:16:53;1.45;;;1.40;;
7051;SDS011;3567;52.444;13.556;2022-08-14T13:19:20;3.70;;;1.45;;
7051;SDS011;3567;52.444;13.556;2022-08-14T13:21:46;3.05;;;1.65;;
7051;SDS011;3567;52.444;13.556;2022-08-14T13:24:13;2.13;;;1.90;;
7051;SDS011;3567;52.444;13.556;2022-08-14T13:26:43;1.90;;;1.80;;
7051;SDS011;3567;52.444;13.556;2022-08-14T13:29:10;2.17;;;2.05;;
7051;SDS011;3567;52.444;13.556;2022-08-14T13:31:37;2.22;;;2.13;;
7051;SDS011;3567;52.444;13.556;2022-08-14T13:34:08;3.20;;;2.35;;
7051;SDS011;3567;52.444;13.556;2022-08-14T13:36:37;2.35;;;2.25;;
7051;SDS011;3567;52.444;13.556;2022-08-14T13:39:03;2.60;;;2.40;;
7051;SDS011;3567;52.444;13.556;2022-08-14T13:41:28;3.05;;;2.35;;
7051;SDS011;3567;52.444;13.556;2022-08-14T13:43:57;2.75;;;2.55;;
7051;SDS011;3567;52.444;13.556;2022-08-14T13:46:23;2.42;;;2.33;;
7051;SDS011;3567;52.444;13.556;2022-08-14T13:48:51;5.30;;;2.67;;
7051;SDS011;3567;52.444;13.556;2022-08-14T13:51:16;2.47;;;2.33;;
7051;SDS011;3567;52.444;13.556;2022-08-14T13:53:47;2.20;;;2.15;;
7051;SDS011;3567;52.444;13.556;2022-08-14T13:56:13;2.30;;;2.13;;
7051;SDS011;3567;52.444;13.556;2022-08-14T13:58:43;2.25;;;2.15;;
7051;SDS011;3567;52.444;13.556;2022-08-14T14:01:10;2.80;;;1.90;;
7051;SDS011;3567;52.444;13.556;2022-08-14T14:03:38;3.55;;;1.70;;
7051;SDS011;3567;52.444;13.556;2022-08-14T14:06:08;2.42;;;2.10;;
7051;SDS011;3567;52.444;13.556;2022-08-14T14:08:35;2.13;;;2.03;;
7051;SDS011;3567;52.444;13.556;2022-08-14T14:11:13;2.33;;;1.83;;
7051;SDS011;3567;52.444;13.556;2022-08-14T14:13:41;1.90;;;1.75;;
7051;SDS011;3567;52.444;13.556;2022-08-14T14:16:09;1.50;;;1.50;;
7051;SDS011;3567;52.444;13.556;2022-08-14T14:18:35;1.98;;;1.83;;
7051;SDS011;3567;52.444;13.556;2022-08-14T14:21:02;1.20;;;1.20;;
7051;SDS011;3567;52.444;13.556;2022-08-14T14:23:29;2.28;;;1.42;;
7051;SDS011;3567;52.444;13.556;2022-08-14T14:25:55;2.28;;;2.17;;
7051;SDS011;3567;52.444;13.556;2022-08-14T14:28:21;2.92;;;1.85;;
7051;SDS011;3567;52.444;13.556;2022-08-14T14:30:52;2.63;;;1.80;;
7051;SDS011;3567;52.444;13.556;2022-08-14T14:33:18;2.40;;;1.48;;
7051;SDS011;3567;52.444;13.556;2022-08-14T14:35:45;2.65;;;1.50;;
7051;SDS011;3567;52.444;13.556;2022-08-14T14:38:12;1.67;;;1.48;;
7051;SDS011;3567;52.444;13.556;2022-08-14T14:40:38;2.33;;;1.27;;
7051;SDS011;3567;52.444;13.556;2022-08-14T14:43:07;3.33;;;1.60;;
7051;SDS011;3567;52.444;13.556;2022-08-14T14:45:35;1.77;;;1.73;;
7051;SDS011;3567;52.444;13.556;2022-08-14T14:48:01;2.15;;;1.98;;
7051;SDS011;3567;52.444;13.556;2022-08-14T14:50:31;3.13;;;1.48;;
7051;SDS011;3567;52.444;13.556;2022-08-14T14:52:56;2.15;;;2.05;;
7051;SDS011;3567;52.444;13.556;2022-08-14T14:55:22;2.00;;;1.88;;
7051;SDS011;3567;52.444;13.556;2022-08-14T14:57:49;1.63;;;1.52;;
7051;SDS011;3567;52.444;13.556;2022-08-14T15:00:15;1.60;;;1.50;;
7051;SDS011;3567;52.444;13.556;2022-08-14T15:02:44;2.67;;;1.50;;
7051;SDS011;3567;52.444;13.556;2022-08-14T15:05:12;1.80;;;1.80;;
7051;SDS011;3567;52.444;13.556;2022-08-14T15:07:40;1.63;;;1.60;;
7051;SDS011;3567;52.444;13.556;2022-08-14T15:10:07;1.60;;;1.50;;
7051;SDS011;3567;52.444;13.556;2022-08-14T15:12:34;2.22;;;1.90;;
7051;SDS011;3567;52.444;13.556;2022-08-14T15:14:59;2.97;;;1.77;;
7051;SDS011;3567;52.444;13.556;2022-08-14T15:17:25;2.03;;;1.92;;
7051;SDS011;3567;52.444;13.556;2022-08-14T15:19:50;2.10;;;1.90;;
7051;SDS011;3567;52.444;13.556;2022-08-14T15:22:18;1.98;;;1.60;;
7051;SDS011;3567;52.444;13.556;2022-08-14T15:24:44;2.13;;;1.92;;
7051;SDS011;3567;52.444;13.556;2022-08-14T15:27:09;1.58;;;1.48;;
7051;SDS011;3567;52.444;13.556;2022-08-14T15:29:35;1.52;;;1.50;;
7051;SDS011;3567;52.444;13.556;2022-08-14T15:32:05;2.13;;;1.88;;
7051;SDS011;3567;52.444;13.556;2022-08-14T15:34:32;1.30;;;1.30;;
7051;SDS011;3567;52.444;13.556;2022-08-14T15:36:58;6.18;;;5.68;;